Aeroporto :
LOGIN :

Iscrizione | Disclaimer

   EN    FR    IT 

 










Sommario :    VFR   VFR Marginale   IFR   IFR Intensivo   IFR Molto Intensivo
Visibilità : 
Base nubi : 
>= 8 km
>= 3000ft
5 / 8 km
1000 / 3000 ft
1500m / 5 km
500 / 1000 ft
800 / 1500m
200 / 500 ft
< 800m
< 200 ft
Simboli :   Temporali  Nebbia  Neve Forte  Precipitazioni Forti  Vento > 20 kt
SIGMETs :   Varie  Temporali  Ghiacco  Turbolenza  Onda orograficha  Ceneri Vulcaniche






- Altitudine del aeroporto : 274 ft
- Codice IATA : PUY


LDPL - Pula

ULTIMO METAR :
  • 251500Z 18004KT 100V240 9999 FEW013 SCT050 14/10 Q1008 NOSIG

METARs OBSOLETI :
  • 251430Z 19006KT 140V240 9999 FEW015 BKN052 14/10 Q1008 NOSIG
  • 251400Z 19006KT 150V250 9999 FEW015 BKN050 15/10 Q1009 NOSIG
  • 251330Z 21007KT 180V250 9999 SCT040 BKN054 14/09 Q1009 NOSIG
  • 251300Z 21005KT 140V240 9999 SCT040 BKN056 13/10 Q1010 TEMPO 23010KT
  • 251230Z 21006KT 180V240 9999 SCT038 BKN058 13/09 Q1010 TEMPO 23010KT

TAF TAF LDPL
Valido dal 25 a 12 ore il 26 a 12 ore UTC


251125Z 2512/2612 23010KT 9999 SCT015 BKN050 TX14/2514Z TN10/2605Z
PROB40 2512/2520 18005KT
PROB30
TEMPO 2600/2609 SHRA FEW040TCU BKN045
BECMG 2606/2608 26015KT
PROB30
TEMPO 2609/2612 26018G30KT



MetMap, La meteo Aeronautica in un colpo d'occhio ! - Copyright ORBIFLY Dicembre 2007 - Disclaimer

ORBIFLY MET'MAP TEAM :

Programmazione e sviluppo : Alexandra Zaïnal
Concezione : Baudouin d'Aumeries
Aiuto per la programmazione : Marc-Olivier Méhu
Supporto tecnico e logistico : Manuel Goepfert
Aiuto per la traduzione : Arnaldo La Scala

Contatto : metmap@orbifly.com




FONTI E CREDITI :

   NOAA